createdAt,value
2023-05-10T00:01:29.874Z,12.93
2023-05-10T00:04:16.852Z,12.65
2023-05-10T00:07:03.748Z,12.76
2023-05-10T00:09:50.831Z,12.85
2023-05-10T00:12:39.724Z,12.81
2023-05-10T00:15:27.771Z,12.74
2023-05-10T00:18:14.514Z,12.63
2023-05-10T00:21:01.714Z,12.55
2023-05-10T00:23:48.365Z,12.47
2023-05-10T00:26:35.270Z,12.53
2023-05-10T00:29:22.209Z,12.50
2023-05-10T00:32:11.305Z,12.44
2023-05-10T00:35:00.668Z,12.47
2023-05-10T00:37:47.416Z,12.45
2023-05-10T00:40:42.927Z,12.41
2023-05-10T00:43:37.406Z,12.44
2023-05-10T00:46:26.661Z,12.40
2023-05-10T00:49:14.840Z,12.38
2023-05-10T00:52:03.121Z,12.25
2023-05-10T00:54:49.904Z,12.29
2023-05-10T00:57:37.941Z,12.14
2023-05-10T01:00:24.784Z,12.09
2023-05-10T01:03:12.573Z,12.01
2023-05-10T01:06:00.916Z,11.92
2023-05-10T01:08:48.840Z,11.93
2023-05-10T01:11:37.388Z,11.93
2023-05-10T01:14:24.191Z,11.85
2023-05-10T01:17:12.468Z,11.87
2023-05-10T01:19:59.342Z,11.75
2023-05-10T01:23:12.910Z,11.52
2023-05-10T01:26:26.330Z,11.35
2023-05-10T01:29:39.937Z,11.47
2023-05-10T01:32:38.012Z,11.44
2023-05-10T01:35:33.906Z,11.23
2023-05-10T01:38:31.763Z,11.34
2023-05-10T01:41:22.241Z,11.35
2023-05-10T01:44:16.957Z,11.25
2023-05-10T01:47:08.278Z,11.29
2023-05-10T01:49:58.650Z,11.16
2023-05-10T01:52:49.752Z,11.14
2023-05-10T01:55:43.214Z,11.31
2023-05-10T01:58:34.921Z,11.26
2023-05-10T02:01:23.640Z,11.19
2023-05-10T02:04:13.595Z,11.15
2023-05-10T02:07:02.104Z,11.10
2023-05-10T02:09:50.272Z,11.09
2023-05-10T02:12:38.791Z,11.10
2023-05-10T02:15:26.814Z,11.00
2023-05-10T02:18:16.553Z,11.02
2023-05-10T02:21:04.114Z,10.87
2023-05-10T02:23:54.573Z,10.95
2023-05-10T02:26:43.009Z,10.94
2023-05-10T02:29:30.543Z,10.96
2023-05-10T02:32:18.824Z,10.89
2023-05-10T02:35:06.948Z,10.95
2023-05-10T02:37:55.293Z,10.97
2023-05-10T02:40:44.549Z,10.90
2023-05-10T02:43:33.192Z,10.86
2023-05-10T02:46:19.762Z,10.80
2023-05-10T02:49:06.825Z,10.71
2023-05-10T02:51:58.771Z,10.69
2023-05-10T02:54:47.455Z,10.68
2023-05-10T02:57:37.608Z,10.55
2023-05-10T03:00:24.328Z,10.47
2023-05-10T03:03:11.130Z,10.55
2023-05-10T03:05:59.045Z,10.55
2023-05-10T03:08:47.147Z,10.62
2023-05-10T03:11:46.425Z,9.78
2023-05-10T03:14:48.959Z,10.59
2023-05-10T03:17:54.871Z,10.50
2023-05-10T03:20:47.224Z,10.58
2023-05-10T03:23:42.767Z,10.66
2023-05-10T03:26:30.708Z,10.63
2023-05-10T03:29:28.245Z,10.56
2023-05-10T03:32:16.486Z,10.67
2023-05-10T03:35:03.372Z,10.54
2023-05-10T03:37:50.256Z,10.71
2023-05-10T03:40:37.273Z,10.86
2023-05-10T03:43:24.041Z,10.47
2023-05-10T03:46:10.866Z,10.65
2023-05-10T03:48:58.870Z,10.77
2023-05-10T03:51:45.736Z,10.68
2023-05-10T03:54:33.289Z,10.67
2023-05-10T03:57:20.165Z,10.84
2023-05-10T04:00:08.008Z,10.71
2023-05-10T04:03:15.363Z,10.77
2023-05-10T04:06:03.926Z,10.79
2023-05-10T04:08:50.364Z,10.91
2023-05-10T04:11:38.050Z,10.92
2023-05-10T04:14:26.079Z,11.04
2023-05-10T04:17:13.114Z,11.21
2023-05-10T04:19:59.785Z,11.22
2023-05-10T04:22:50.931Z,11.30
2023-05-10T04:25:37.751Z,11.48
2023-05-10T04:28:27.166Z,11.58
2023-05-10T04:31:14.047Z,11.73
2023-05-10T04:34:00.779Z,11.92
2023-05-10T04:36:49.859Z,12.01
2023-05-10T04:39:42.717Z,12.19
2023-05-10T04:42:29.488Z,12.53
2023-05-10T04:45:16.762Z,12.64
2023-05-10T04:48:03.745Z,12.65
2023-05-10T04:50:54.853Z,12.81
2023-05-10T04:53:43.033Z,12.97
2023-05-10T05:00:07.398Z,13.66
2023-05-10T05:02:54.050Z,15.52
2023-05-10T05:05:43.275Z,17.08
2023-05-10T05:08:29.931Z,18.07
2023-05-10T05:11:16.955Z,18.90
2023-05-10T05:14:07.375Z,19.47
2023-05-10T05:16:55.760Z,19.48
2023-05-10T05:19:43.066Z,19.35
2023-05-10T05:22:30.065Z,19.62
2023-05-10T05:25:17.234Z,19.29
2023-05-10T05:28:06.686Z,19.31
2023-05-10T05:30:56.633Z,19.22
2023-05-10T05:33:43.159Z,19.09
2023-05-10T05:36:32.795Z,19.68
2023-05-10T05:39:19.682Z,19.79
2023-05-10T05:42:09.609Z,20.05
2023-05-10T05:44:56.379Z,20.01
2023-05-10T05:47:44.520Z,19.74
2023-05-10T05:50:31.424Z,19.95
2023-05-10T05:53:19.108Z,19.95
2023-05-10T05:56:06.543Z,19.88
2023-05-10T05:58:55.498Z,19.14
2023-05-10T06:01:42.125Z,19.76
2023-05-10T06:04:30.439Z,19.48
2023-05-10T06:07:20.077Z,19.15
2023-05-10T06:10:08.320Z,18.93
2023-05-10T06:12:55.433Z,18.93
2023-05-10T06:15:42.298Z,18.76
2023-05-10T06:18:31.424Z,18.96
2023-05-10T06:21:22.140Z,18.89
2023-05-10T06:24:09.116Z,19.54
2023-05-10T06:26:55.840Z,19.48
2023-05-10T06:29:42.725Z,19.48
2023-05-10T06:32:29.554Z,19.38
2023-05-10T06:35:16.933Z,19.60
2023-05-10T06:38:07.993Z,19.60
2023-05-10T06:40:54.915Z,19.05
2023-05-10T06:43:43.112Z,19.33
2023-05-10T06:46:29.839Z,18.75
2023-05-10T06:49:16.984Z,18.68
2023-05-10T06:52:06.062Z,18.40
2023-05-10T06:54:56.832Z,18.49
2023-05-10T06:57:43.518Z,18.56
2023-05-10T07:00:30.329Z,18.64
2023-05-10T07:03:22.108Z,18.56
2023-05-10T07:06:29.485Z,18.69
2023-05-10T07:09:43.980Z,18.70
2023-05-10T07:12:49.768Z,18.62
2023-05-10T07:15:57.478Z,18.70
2023-05-10T07:18:53.555Z,18.49
2023-05-10T07:21:47.037Z,18.69
2023-05-10T07:27:49.882Z,18.71
2023-05-10T07:30:39.826Z,18.59
2023-05-10T07:33:28.003Z,18.65
2023-05-10T07:36:16.178Z,18.95
2023-05-10T07:39:09.243Z,18.88
2023-05-10T07:41:57.061Z,18.62
2023-05-10T07:44:50.987Z,18.58
2023-05-10T07:47:38.567Z,18.92
2023-05-10T07:50:26.278Z,19.16
2023-05-10T07:53:42.280Z,19.19
2023-05-10T07:56:37.552Z,19.24
2023-05-10T07:59:25.104Z,19.22
2023-05-10T08:02:18.609Z,19.32
2023-05-10T08:05:10.787Z,19.12
2023-05-10T08:08:01.048Z,19.14
2023-05-10T08:10:48.214Z,19.44
2023-05-10T08:13:35.241Z,19.12
2023-05-10T08:16:25.320Z,19.65
2023-05-10T08:19:15.829Z,19.33
2023-05-10T08:22:04.764Z,19.58
2023-05-10T08:24:51.854Z,19.79
2023-05-10T08:27:38.694Z,20.12
2023-05-10T08:30:25.551Z,20.42
2023-05-10T08:33:12.612Z,20.54
2023-05-10T08:36:02.828Z,20.67
2023-05-10T08:38:50.282Z,21.41
2023-05-10T08:41:41.118Z,21.71
2023-05-10T08:44:33.575Z,22.21
2023-05-10T08:47:23.356Z,22.19
2023-05-10T08:50:11.092Z,21.84
2023-05-10T08:53:03.195Z,22.27
2023-05-10T08:55:52.383Z,22.15
2023-05-10T08:58:39.338Z,22.66
2023-05-10T09:01:34.989Z,22.54
2023-05-10T09:04:27.378Z,22.78
2023-05-10T09:07:14.392Z,23.30
2023-05-10T09:10:07.711Z,22.80
2023-05-10T09:12:56.909Z,22.81
2023-05-10T09:15:56.860Z,22.70
2023-05-10T09:18:45.621Z,23.16
2023-05-10T09:24:46.197Z,22.81
2023-05-10T09:27:39.565Z,22.61
2023-05-10T09:30:35.032Z,22.71
2023-05-10T09:33:23.846Z,23.63
2023-05-10T09:36:11.526Z,23.82
2023-05-10T09:38:57.962Z,23.90
2023-05-10T09:41:47.227Z,23.93
2023-05-10T09:44:36.695Z,23.63
2023-05-10T09:47:23.571Z,23.29
2023-05-10T09:50:13.627Z,23.29
2023-05-10T09:53:06.007Z,23.45
2023-05-10T09:55:55.925Z,23.63
2023-05-10T09:58:45.335Z,23.97
2023-05-10T10:01:35.733Z,24.33
2023-05-10T10:04:23.570Z,23.78
2023-05-10T10:07:12.853Z,23.86
2023-05-10T10:10:03.227Z,23.66
2023-05-10T10:12:52.364Z,23.83
2023-05-10T10:15:39.280Z,23.89
2023-05-10T10:18:28.320Z,23.44
2023-05-10T10:21:18.028Z,23.51
2023-05-10T10:24:08.618Z,23.36
2023-05-10T10:27:07.770Z,23.98
2023-05-10T10:30:19.471Z,23.70
2023-05-10T10:33:54.239Z,23.35
2023-05-10T10:36:46.992Z,23.40
2023-05-10T10:39:37.898Z,23.43
2023-05-10T10:43:00.411Z,23.40
2023-05-10T10:46:13.102Z,23.56
2023-05-10T10:49:14.742Z,23.71
2023-05-10T10:52:33.224Z,23.70
2023-05-10T10:55:33.039Z,23.79
2023-05-10T10:58:33.300Z,23.73
2023-05-10T11:01:26.151Z,23.64
2023-05-10T11:04:22.917Z,24.00
2023-05-10T11:07:23.889Z,23.85
2023-05-10T11:10:14.271Z,23.91
2023-05-10T11:13:03.405Z,23.67
2023-05-10T11:15:53.783Z,24.10
2023-05-10T11:18:45.349Z,24.05
2023-05-10T11:21:49.688Z,24.01
2023-05-10T11:24:40.694Z,23.85
2023-05-10T11:27:27.412Z,23.97
2023-05-10T11:30:17.735Z,24.24
2023-05-10T11:33:05.005Z,24.11
2023-05-10T11:35:57.460Z,24.18
2023-05-10T11:38:55.701Z,24.19
2023-05-10T11:42:26.269Z,24.21
2023-05-10T11:45:13.378Z,24.24
2023-05-10T11:48:00.783Z,24.14
2023-05-10T11:50:48.311Z,23.79
2023-05-10T11:53:35.840Z,23.79
2023-05-10T11:56:24.616Z,24.27
2023-05-10T11:59:13.599Z,24.30
2023-05-10T12:02:03.078Z,24.21
2023-05-10T12:04:51.123Z,24.47
2023-05-10T12:07:37.940Z,24.58
2023-05-10T12:10:31.189Z,24.51
2023-05-10T12:13:25.409Z,24.58
2023-05-10T12:16:22.047Z,24.76
2023-05-10T12:19:08.963Z,24.80
2023-05-10T12:21:56.108Z,24.79
2023-05-10T12:24:42.943Z,24.94
2023-05-10T12:27:36.702Z,24.96
2023-05-10T12:30:28.859Z,25.01
2023-05-10T12:33:19.612Z,24.82
2023-05-10T12:36:07.053Z,24.87
2023-05-10T12:38:53.760Z,24.76
2023-05-10T12:41:42.893Z,24.61
2023-05-10T12:44:33.706Z,24.89
2023-05-10T12:47:23.690Z,24.93
2023-05-10T12:50:10.831Z,25.02
2023-05-10T12:52:59.720Z,25.06
2023-05-10T12:55:51.476Z,24.98
2023-05-10T12:58:43.833Z,24.76
2023-05-10T13:01:32.956Z,24.77
2023-05-10T13:04:21.566Z,24.87
2023-05-10T13:07:12.644Z,25.15
2023-05-10T13:10:00.345Z,25.39
2023-05-10T13:12:49.396Z,25.43
2023-05-10T13:15:39.089Z,25.46
2023-05-10T13:18:27.752Z,25.67
2023-05-10T13:21:20.270Z,25.59
2023-05-10T13:24:06.832Z,25.71
2023-05-10T13:27:00.987Z,25.71
2023-05-10T13:29:49.693Z,25.53
2023-05-10T13:32:38.120Z,25.50
2023-05-10T13:35:24.758Z,25.52
2023-05-10T13:38:13.053Z,25.40
2023-05-10T13:41:01.972Z,25.30
2023-05-10T13:43:54.494Z,25.27
2023-05-10T13:46:41.062Z,25.15
2023-05-10T13:49:30.801Z,25.44
2023-05-10T13:52:18.601Z,25.48
2023-05-10T13:55:09.894Z,25.60
2023-05-10T13:58:00.315Z,25.48
2023-05-10T14:00:47.111Z,25.59
2023-05-10T14:03:36.663Z,25.43
2023-05-10T14:06:25.994Z,25.37
2023-05-10T14:09:12.498Z,25.56
2023-05-10T14:12:10.760Z,25.53
2023-05-10T14:15:01.587Z,25.32
2023-05-10T14:17:48.379Z,25.38
2023-05-10T14:20:35.176Z,25.53
2023-05-10T14:23:29.914Z,25.35
2023-05-10T14:26:19.561Z,25.48
2023-05-10T14:29:09.268Z,25.76
2023-05-10T14:31:57.639Z,25.36
2023-05-10T14:34:46.607Z,25.35
2023-05-10T14:37:36.480Z,25.29
2023-05-10T14:41:21.765Z,25.35
2023-05-10T14:44:18.592Z,25.37
2023-05-10T14:47:12.055Z,25.36
2023-05-10T14:50:03.075Z,25.41
2023-05-10T14:52:52.336Z,25.46
2023-05-10T14:55:41.364Z,25.29
2023-05-10T14:58:28.065Z,25.35
2023-05-10T15:01:20.166Z,25.23
2023-05-10T15:04:07.510Z,25.50
2023-05-10T15:07:00.178Z,25.44
2023-05-10T15:09:47.586Z,25.38
2023-05-10T15:12:34.285Z,25.21
2023-05-10T15:15:24.316Z,25.27
2023-05-10T15:18:18.645Z,25.19
2023-05-10T15:21:09.907Z,25.28
2023-05-10T15:23:56.546Z,25.23
2023-05-10T15:26:47.240Z,25.19
2023-05-10T15:29:43.488Z,25.16
2023-05-10T15:32:32.275Z,25.52
2023-05-10T15:35:28.530Z,25.35
2023-05-10T15:38:20.230Z,25.09
2023-05-10T15:41:11.735Z,25.20
2023-05-10T15:44:05.721Z,25.04
2023-05-10T15:47:00.173Z,25.06
2023-05-10T15:49:46.955Z,24.90
2023-05-10T15:52:44.721Z,24.92
2023-05-10T15:55:31.571Z,25.10
2023-05-10T15:58:19.905Z,25.07
2023-05-10T16:01:07.103Z,25.11
2023-05-10T16:03:56.152Z,24.95
2023-05-10T16:06:45.736Z,24.81
2023-05-10T16:09:40.957Z,24.80
2023-05-10T16:12:27.579Z,25.07
2023-05-10T16:15:14.574Z,25.30
2023-05-10T16:18:03.894Z,25.55
2023-05-10T16:20:53.171Z,25.28
2023-05-10T16:23:41.072Z,25.41
2023-05-10T16:26:36.914Z,25.36
2023-05-10T16:29:24.606Z,24.81
2023-05-10T16:32:13.693Z,24.60
2023-05-10T16:35:00.751Z,24.47
2023-05-10T16:37:49.961Z,24.34
2023-05-10T16:40:37.713Z,24.29
2023-05-10T16:43:26.264Z,24.25
2023-05-10T16:46:15.715Z,24.22
2023-05-10T16:49:02.371Z,24.19
2023-05-10T16:51:53.464Z,24.20
2023-05-10T16:54:46.288Z,24.11
2023-05-10T16:57:42.597Z,24.16
2023-05-10T17:00:36.537Z,23.98
2023-05-10T17:03:25.392Z,23.87
2023-05-10T17:06:17.486Z,23.79
2023-05-10T17:09:15.139Z,23.82
2023-05-10T17:12:04.930Z,23.66
2023-05-10T17:14:54.876Z,23.67
2023-05-10T17:17:43.016Z,23.60
2023-05-10T17:20:31.898Z,23.57
2023-05-10T17:23:20.424Z,23.47
2023-05-10T17:26:07.681Z,23.43
2023-05-10T17:28:55.545Z,23.34
2023-05-10T17:31:42.548Z,23.32
2023-05-10T17:34:33.555Z,23.42
2023-05-10T17:37:23.066Z,23.22
2023-05-10T17:40:14.153Z,23.29
2023-05-10T17:43:00.764Z,23.42
2023-05-10T17:45:49.086Z,23.28
2023-05-10T17:48:40.367Z,23.31
2023-05-10T17:51:30.580Z,23.24
2023-05-10T17:54:20.024Z,23.18
2023-05-10T17:57:08.779Z,23.08
2023-05-10T17:59:56.027Z,23.05
2023-05-10T18:02:47.246Z,23.00
2023-05-10T18:05:42.199Z,22.68
2023-05-10T18:08:30.927Z,22.70
2023-05-10T18:11:20.450Z,22.66
2023-05-10T18:14:11.091Z,22.58
2023-05-10T18:17:01.460Z,22.41
2023-05-10T18:19:48.630Z,22.17
2023-05-10T18:22:35.576Z,21.96
2023-05-10T18:25:23.963Z,21.85
2023-05-10T18:28:11.597Z,21.97
2023-05-10T18:30:59.147Z,21.76
2023-05-10T18:33:55.716Z,21.99
2023-05-10T18:36:45.781Z,22.04
2023-05-10T18:39:34.923Z,21.89
2023-05-10T18:42:28.257Z,21.45
2023-05-10T18:45:17.840Z,21.73
2023-05-10T18:48:05.114Z,21.72
2023-05-10T18:50:51.925Z,21.73
2023-05-10T18:53:38.776Z,21.65
2023-05-10T18:56:27.993Z,21.59
2023-05-10T18:59:18.511Z,21.55
2023-05-10T19:02:05.677Z,21.55
2023-05-10T19:04:52.515Z,21.38
2023-05-10T19:07:46.901Z,21.27
2023-05-10T19:10:36.764Z,20.89
2023-05-10T19:13:49.340Z,20.82
2023-05-10T19:16:40.419Z,20.84
2023-05-10T19:19:31.003Z,20.73
2023-05-10T19:22:28.303Z,20.83
2023-05-10T19:25:29.422Z,20.99
2023-05-10T19:28:22.769Z,20.86
2023-05-10T19:31:11.783Z,20.62
2023-05-10T19:34:04.951Z,20.67
2023-05-10T19:36:53.700Z,20.49
2023-05-10T19:39:40.621Z,20.47
2023-05-10T19:42:27.610Z,20.41
2023-05-10T19:45:16.647Z,20.43
2023-05-10T19:48:03.776Z,20.32
2023-05-10T19:50:51.980Z,20.18
2023-05-10T19:54:32.020Z,20.12
2023-05-10T19:57:19.736Z,20.02
2023-05-10T20:00:08.111Z,19.82
2023-05-10T20:02:57.523Z,19.71
2023-05-10T20:05:44.307Z,19.61
2023-05-10T20:08:35.011Z,19.57
2023-05-10T20:11:22.088Z,19.50
2023-05-10T20:14:12.948Z,19.36
2023-05-10T20:16:59.534Z,19.15
2023-05-10T20:19:46.492Z,19.01
2023-05-10T20:22:33.310Z,18.97
2023-05-10T20:25:23.853Z,18.82
2023-05-10T20:28:10.972Z,18.81
2023-05-10T20:31:00.686Z,18.74
2023-05-10T20:33:49.545Z,18.84
2023-05-10T20:36:36.105Z,18.67
2023-05-10T20:39:25.698Z,18.58
2023-05-10T20:42:15.884Z,18.57
2023-05-10T20:45:02.466Z,18.58
2023-05-10T20:47:51.574Z,18.50
2023-05-10T20:50:40.329Z,18.43
2023-05-10T20:53:26.828Z,18.42
2023-05-10T20:56:16.174Z,18.33
2023-05-10T20:59:06.581Z,18.32
2023-05-10T21:01:55.657Z,18.40
2023-05-10T21:04:47.204Z,18.12
2023-05-10T21:07:34.152Z,17.99
2023-05-10T21:10:29.200Z,17.88
2023-05-10T21:13:16.237Z,17.72
2023-05-10T21:16:09.184Z,17.65
2023-05-10T21:18:55.681Z,17.58
2023-05-10T21:21:43.878Z,17.48
2023-05-10T21:24:30.809Z,17.36
2023-05-10T21:27:17.591Z,17.30
2023-05-10T21:30:07.139Z,17.13
2023-05-10T21:33:00.798Z,17.02
2023-05-10T21:35:50.185Z,16.99
2023-05-10T21:38:36.744Z,16.86
2023-05-10T21:41:26.312Z,16.70
2023-05-10T21:44:15.090Z,16.54
2023-05-10T21:47:01.908Z,16.53
2023-05-10T21:49:50.625Z,16.44
2023-05-10T21:52:41.986Z,16.39
2023-05-10T21:55:32.067Z,16.29
2023-05-10T22:01:19.461Z,16.21
2023-05-10T22:04:06.331Z,16.26
2023-05-10T22:06:57.406Z,16.32
2023-05-10T22:09:45.256Z,16.00
2023-05-10T22:12:32.252Z,16.02
2023-05-10T22:15:18.960Z,15.78
2023-05-10T22:18:19.452Z,15.67
2023-05-10T22:21:13.633Z,15.61
2023-05-10T22:24:15.194Z,15.52
2023-05-10T22:27:02.962Z,15.51
2023-05-10T22:29:50.014Z,15.38
2023-05-10T22:32:54.212Z,15.34
2023-05-10T22:35:43.417Z,15.31
2023-05-10T22:38:32.260Z,15.21
2023-05-10T22:41:22.778Z,15.24
2023-05-10T22:44:12.028Z,15.23
2023-05-10T22:46:58.665Z,15.11
2023-05-10T22:49:47.972Z,15.11
2023-05-10T22:52:34.770Z,15.07
2023-05-10T22:55:26.514Z,15.12
2023-05-10T22:58:15.468Z,15.13
2023-05-10T23:01:02.306Z,15.18
2023-05-10T23:03:49.159Z,15.07
2023-05-10T23:06:41.879Z,14.88
2023-05-10T23:09:28.550Z,14.75
2023-05-10T23:12:15.259Z,14.72
2023-05-10T23:15:03.804Z,14.80
2023-05-10T23:17:50.906Z,14.83
2023-05-10T23:20:37.512Z,15.03
2023-05-10T23:23:24.291Z,14.94
2023-05-10T23:26:11.405Z,14.93
2023-05-10T23:28:58.083Z,14.70
2023-05-10T23:31:49.253Z,14.71
2023-05-10T23:34:36.074Z,14.70
2023-05-10T23:37:23.057Z,14.52
2023-05-10T23:40:13.237Z,14.53
2023-05-10T23:42:59.670Z,14.34
2023-05-10T23:45:54.970Z,14.26
2023-05-10T23:48:43.065Z,14.11
2023-05-10T23:51:30.811Z,14.09
2023-05-10T23:54:17.844Z,14.11
2023-05-10T23:57:07.177Z,14.04
2023-05-10T23:59:54.183Z,14.05
